sensor_id;sensor_type;location;lat;lon;timestamp;pressure;altitude;pressure_sealevel;temperature;humidity
77452;BME280;66537;52.370;4.832;2023-12-20T00:01:26;101656.31;;;7.12;100.00
77452;BME280;66537;52.370;4.832;2023-12-20T00:03:51;101647.72;;;7.08;100.00
77452;BME280;66537;52.370;4.832;2023-12-20T00:06:17;101653.72;;;7.07;100.00
77452;BME280;66537;52.370;4.832;2023-12-20T00:08:42;101646.00;;;7.01;100.00
77452;BME280;66537;52.370;4.832;2023-12-20T00:11:07;101652.00;;;6.99;100.00
77452;BME280;66537;52.370;4.832;2023-12-20T00:13:33;101646.88;;;7.06;100.00
77452;BME280;66537;52.370;4.832;2023-12-20T00:15:58;101651.16;;;7.03;100.00
77452;BME280;66537;52.370;4.832;2023-12-20T00:18:23;101651.16;;;7.06;100.00
77452;BME280;66537;52.370;4.832;2023-12-20T00:20:49;101650.28;;;7.11;100.00
77452;BME280;66537;52.370;4.832;2023-12-20T00:23:14;101647.72;;;7.17;100.00
77452;BME280;66537;52.370;4.832;2023-12-20T00:25:39;101641.69;;;7.17;100.00
77452;BME280;66537;52.370;4.832;2023-12-20T00:28:05;101630.56;;;7.15;100.00
77452;BME280;66537;52.370;4.832;2023-12-20T00:30:31;101641.72;;;7.08;100.00
77452;BME280;66537;52.370;4.832;2023-12-20T00:32:56;101644.28;;;7.05;100.00
77452;BME280;66537;52.370;4.832;2023-12-20T00:35:21;101658.00;;;7.07;100.00
77452;BME280;66537;52.370;4.832;2023-12-20T00:37:47;101653.72;;;7.07;100.00
77452;BME280;66537;52.370;4.832;2023-12-20T00:40:12;101652.00;;;7.11;100.00
77452;BME280;66537;52.370;4.832;2023-12-20T00:42:38;101659.72;;;7.20;100.00
77452;BME280;66537;52.370;4.832;2023-12-20T00:45:04;101647.69;;;7.29;100.00
77452;BME280;66537;52.370;4.832;2023-12-20T00:47:30;101643.41;;;7.32;100.00
77452;BME280;66537;52.370;4.832;2023-12-20T00:49:56;101640.84;;;7.25;100.00
77452;BME280;66537;52.370;4.832;2023-12-20T00:52:21;101645.97;;;7.27;100.00
77452;BME280;66537;52.370;4.832;2023-12-20T00:54:48;101646.84;;;7.21;100.00
77452;BME280;66537;52.370;4.832;2023-12-20T00:57:13;101646.84;;;7.27;100.00
77452;BME280;66537;52.370;4.832;2023-12-20T00:59:38;101643.38;;;7.24;100.00
77452;BME280;66537;52.370;4.832;2023-12-20T01:02:04;101647.69;;;7.22;100.00
77452;BME280;66537;52.370;4.832;2023-12-20T01:04:29;101646.00;;;7.19;100.00
77452;BME280;66537;52.370;4.832;2023-12-20T01:06:54;101641.69;;;7.23;100.00
77452;BME280;66537;52.370;4.832;2023-12-20T01:09:19;101650.28;;;7.16;100.00
77452;BME280;66537;52.370;4.832;2023-12-20T01:11:48;101643.41;;;7.19;100.00
77452;BME280;66537;52.370;4.832;2023-12-20T01:14:13;101649.44;;;7.15;100.00
77452;BME280;66537;52.370;4.832;2023-12-20T01:16:39;101650.31;;;7.10;100.00
77452;BME280;66537;52.370;4.832;2023-12-20T01:19:04;101650.28;;;7.23;100.00
77452;BME280;66537;52.370;4.832;2023-12-20T01:21:30;101652.84;;;7.26;100.00
77452;BME280;66537;52.370;4.832;2023-12-20T01:23:55;101646.00;;;7.25;100.00
77452;BME280;66537;52.370;4.832;2023-12-20T01:26:20;101640.81;;;7.24;100.00
77452;BME280;66537;52.370;4.832;2023-12-20T01:28:45;101639.97;;;7.29;100.00
77452;BME280;66537;52.370;4.832;2023-12-20T01:31:14;101637.38;;;7.31;100.00
77452;BME280;66537;52.370;4.832;2023-12-20T01:33:39;101642.50;;;7.42;100.00
77452;BME280;66537;52.370;4.832;2023-12-20T01:36:05;101644.22;;;7.43;100.00
77452;BME280;66537;52.370;4.832;2023-12-20T01:38:30;101640.78;;;7.47;100.00
77452;BME280;66537;52.370;4.832;2023-12-20T01:40:55;101640.75;;;7.44;100.00
77452;BME280;66537;52.370;4.832;2023-12-20T01:43:21;101638.19;;;7.48;100.00
77452;BME280;66537;52.370;4.832;2023-12-20T01:45:47;101640.81;;;7.39;100.00
77452;BME280;66537;52.370;4.832;2023-12-20T01:48:14;101645.09;;;7.34;100.00
77452;BME280;66537;52.370;4.832;2023-12-20T01:50:41;101648.50;;;7.38;100.00
77452;BME280;66537;52.370;4.832;2023-12-20T01:53:08;101639.91;;;7.42;100.00
77452;BME280;66537;52.370;4.832;2023-12-20T01:55:36;101638.19;;;7.44;100.00
77452;BME280;66537;52.370;4.832;2023-12-20T01:58:03;101638.19;;;7.50;100.00
77452;BME280;66537;52.370;4.832;2023-12-20T02:00:30;101633.03;;;7.48;100.00
77452;BME280;66537;52.370;4.832;2023-12-20T02:02:56;101627.88;;;7.51;100.00
77452;BME280;66537;52.370;4.832;2023-12-20T02:05:25;101639.03;;;7.52;100.00
77452;BME280;66537;52.370;4.832;2023-12-20T02:07:53;101639.91;;;7.52;100.00
77452;BME280;66537;52.370;4.832;2023-12-20T02:10:18;101638.16;;;7.51;100.00
77452;BME280;66537;52.370;4.832;2023-12-20T02:12:43;101626.16;;;7.52;100.00
77452;BME280;66537;52.370;4.832;2023-12-20T02:15:09;101625.28;;;7.51;100.00
77452;BME280;66537;52.370;4.832;2023-12-20T02:17:36;101637.34;;;7.51;100.00
77452;BME280;66537;52.370;4.832;2023-12-20T02:20:02;101632.16;;;7.57;100.00
77452;BME280;66537;52.370;4.832;2023-12-20T02:22:27;101625.31;;;7.48;100.00
77452;BME280;66537;52.370;4.832;2023-12-20T02:24:53;101626.19;;;7.49;100.00
77452;BME280;66537;52.370;4.832;2023-12-20T02:27:19;101619.28;;;7.52;100.00
77452;BME280;66537;52.370;4.832;2023-12-20T02:29:46;101611.56;;;7.54;100.00
77452;BME280;66537;52.370;4.832;2023-12-20T02:32:12;101619.28;;;7.54;100.00
77452;BME280;66537;52.370;4.832;2023-12-20T02:34:37;101614.19;;;7.43;100.00
77452;BME280;66537;52.370;4.832;2023-12-20T02:37:03;101615.00;;;7.54;100.00
77452;BME280;66537;52.370;4.832;2023-12-20T02:39:28;101617.56;;;7.51;100.00
77452;BME280;66537;52.370;4.832;2023-12-20T02:41:53;101619.28;;;7.49;100.00
77452;BME280;66537;52.370;4.832;2023-12-20T02:44:19;101624.41;;;7.55;100.00
77452;BME280;66537;52.370;4.832;2023-12-20T02:46:44;101616.72;;;7.52;100.00
77452;BME280;66537;52.370;4.832;2023-12-20T02:49:09;101621.00;;;7.52;100.00
77452;BME280;66537;52.370;4.832;2023-12-20T02:51:35;101602.09;;;7.60;100.00
77452;BME280;66537;52.370;4.832;2023-12-20T02:54:03;101608.09;;;7.62;100.00
77452;BME280;66537;52.370;4.832;2023-12-20T02:56:28;101603.81;;;7.60;100.00
77452;BME280;66537;52.370;4.832;2023-12-20T02:58:53;101592.63;;;7.61;100.00
77452;BME280;66537;52.370;4.832;2023-12-20T03:01:19;101582.38;;;7.58;100.00
77452;BME280;66537;52.370;4.832;2023-12-20T03:03:44;101594.38;;;7.62;100.00
77452;BME280;66537;52.370;4.832;2023-12-20T03:06:10;101584.09;;;7.56;100.00
77452;BME280;66537;52.370;4.832;2023-12-20T03:08:35;101587.56;;;7.46;100.00
77452;BME280;66537;52.370;4.832;2023-12-20T03:11:00;101587.63;;;7.34;100.00
77452;BME280;66537;52.370;4.832;2023-12-20T03:13:26;101576.47;;;7.32;100.00
77452;BME280;66537;52.370;4.832;2023-12-20T03:15:51;101580.78;;;7.26;100.00
77452;BME280;66537;52.370;4.832;2023-12-20T03:18:16;101569.66;;;7.20;100.00
77452;BME280;66537;52.370;4.832;2023-12-20T03:20:43;101574.78;;;7.23;100.00
77452;BME280;66537;52.370;4.832;2023-12-20T03:23:08;101580.78;;;7.20;100.00
77452;BME280;66537;52.370;4.832;2023-12-20T03:25:34;101579.09;;;7.18;100.00
77452;BME280;66537;52.370;4.832;2023-12-20T03:27:59;101581.66;;;7.19;100.00
77452;BME280;66537;52.370;4.832;2023-12-20T03:30:25;101587.66;;;7.17;100.00
77452;BME280;66537;52.370;4.832;2023-12-20T03:32:50;101596.22;;;7.25;100.00
77452;BME280;66537;52.370;4.832;2023-12-20T03:35:15;101588.47;;;7.34;100.00
77452;BME280;66537;52.370;4.832;2023-12-20T03:37:41;101590.19;;;7.41;100.00
77452;BME280;66537;52.370;4.832;2023-12-20T03:40:06;101590.13;;;7.46;100.00
77452;BME280;66537;52.370;4.832;2023-12-20T03:42:32;101595.31;;;7.43;100.00
77452;BME280;66537;52.370;4.832;2023-12-20T03:44:57;101600.47;;;7.37;100.00
77452;BME280;66537;52.370;4.832;2023-12-20T03:47:22;101602.16;;;7.47;100.00
77452;BME280;66537;52.370;4.832;2023-12-20T03:49:48;101603.00;;;7.49;100.00
77452;BME280;66537;52.370;4.832;2023-12-20T03:52:13;101604.72;;;7.50;100.00
77452;BME280;66537;52.370;4.832;2023-12-20T03:54:40;101589.25;;;7.54;100.00
77452;BME280;66537;52.370;4.832;2023-12-20T03:57:07;101591.81;;;7.59;100.00
77452;BME280;66537;52.370;4.832;2023-12-20T03:59:38;101579.81;;;7.52;100.00
77452;BME280;66537;52.370;4.832;2023-12-20T04:02:04;101580.69;;;7.52;100.00
77452;BME280;66537;52.370;4.832;2023-12-20T04:04:30;101581.53;;;7.53;100.00
77452;BME280;66537;52.370;4.832;2023-12-20T04:06:55;101578.94;;;7.51;100.00
77452;BME280;66537;52.370;4.832;2023-12-20T04:09:20;101578.09;;;7.49;100.00
77452;BME280;66537;52.370;4.832;2023-12-20T04:11:46;101577.25;;;7.50;100.00
77452;BME280;66537;52.370;4.832;2023-12-20T04:14:11;101570.38;;;7.54;100.00
77452;BME280;66537;52.370;4.832;2023-12-20T04:16:36;101572.06;;;7.58;100.00
77452;BME280;66537;52.370;4.832;2023-12-20T04:19:02;101573.78;;;7.57;100.00
77452;BME280;66537;52.370;4.832;2023-12-20T04:21:27;101569.47;;;7.59;100.00
77452;BME280;66537;52.370;4.832;2023-12-20T04:23:53;101577.19;;;7.59;100.00
77452;BME280;66537;52.370;4.832;2023-12-20T04:26:18;101584.94;;;7.56;100.00
77452;BME280;66537;52.370;4.832;2023-12-20T04:28:43;101579.75;;;7.61;100.00
77452;BME280;66537;52.370;4.832;2023-12-20T04:31:08;101583.19;;;7.67;100.00
77452;BME280;66537;52.370;4.832;2023-12-20T04:33:34;101568.59;;;7.63;100.00
77452;BME280;66537;52.370;4.832;2023-12-20T04:35:59;101560.06;;;7.57;100.00
77452;BME280;66537;52.370;4.832;2023-12-20T04:38:25;101556.59;;;7.62;100.00
77452;BME280;66537;52.370;4.832;2023-12-20T04:40:51;101557.44;;;7.66;100.00
77452;BME280;66537;52.370;4.832;2023-12-20T04:43:16;101559.19;;;7.62;100.00
77452;BME280;66537;52.370;4.832;2023-12-20T04:45:42;101549.72;;;7.64;100.00
77452;BME280;66537;52.370;4.832;2023-12-20T04:48:07;101549.69;;;7.67;100.00
77452;BME280;66537;52.370;4.832;2023-12-20T04:50:32;101541.97;;;7.67;100.00
77452;BME280;66537;52.370;4.832;2023-12-20T04:52:58;101533.41;;;7.61;100.00
77452;BME280;66537;52.370;4.832;2023-12-20T04:55:23;101531.69;;;7.61;100.00
77452;BME280;66537;52.370;4.832;2023-12-20T04:57:49;101547.16;;;7.60;100.00
77452;BME280;66537;52.370;4.832;2023-12-20T05:00:14;101549.72;;;7.61;100.00
77452;BME280;66537;52.370;4.832;2023-12-20T05:02:40;101560.00;;;7.63;100.00
77452;BME280;66537;52.370;4.832;2023-12-20T05:05:06;101556.59;;;7.64;100.00
77452;BME280;66537;52.370;4.832;2023-12-20T05:07:32;101556.59;;;7.62;100.00
77452;BME280;66537;52.370;4.832;2023-12-20T05:09:58;101556.59;;;7.62;100.00
77452;BME280;66537;52.370;4.832;2023-12-20T05:12:23;101553.13;;;7.65;100.00
77452;BME280;66537;52.370;4.832;2023-12-20T05:14:49;101555.72;;;7.68;100.00
77452;BME280;66537;52.370;4.832;2023-12-20T05:17:14;101549.72;;;7.66;100.00
77452;BME280;66537;52.370;4.832;2023-12-20T05:19:39;101551.44;;;7.68;100.00
77452;BME280;66537;52.370;4.832;2023-12-20T05:22:05;101541.06;;;7.73;100.00
77452;BME280;66537;52.370;4.832;2023-12-20T05:24:30;101537.66;;;7.72;100.00
77452;BME280;66537;52.370;4.832;2023-12-20T05:26:55;101535.06;;;7.75;100.00
77452;BME280;66537;52.370;4.832;2023-12-20T05:29:21;101538.50;;;7.76;100.00
77452;BME280;66537;52.370;4.832;2023-12-20T05:31:46;101544.50;;;7.78;100.00
77452;BME280;66537;52.370;4.832;2023-12-20T05:34:11;101541.91;;;7.79;100.00
77452;BME280;66537;52.370;4.832;2023-12-20T05:36:37;101544.47;;;7.84;100.00
77452;BME280;66537;52.370;4.832;2023-12-20T05:39:02;101528.13;;;7.85;100.00
77452;BME280;66537;52.370;4.832;2023-12-20T05:41:31;101538.44;;;7.83;100.00
77452;BME280;66537;52.370;4.832;2023-12-20T05:43:57;101529.00;;;7.84;100.00
77452;BME280;66537;52.370;4.832;2023-12-20T05:46:26;101523.81;;;7.88;100.00
77452;BME280;66537;52.370;4.832;2023-12-20T05:48:51;101528.97;;;7.87;100.00
77452;BME280;66537;52.370;4.832;2023-12-20T05:51:17;101516.91;;;7.90;100.00
77452;BME280;66537;52.370;4.832;2023-12-20T05:53:42;101522.06;;;7.92;100.00
77452;BME280;66537;52.370;4.832;2023-12-20T05:56:09;101527.22;;;7.90;100.00
77452;BME280;66537;52.370;4.832;2023-12-20T05:58:34;101533.25;;;7.88;100.00
77452;BME280;66537;52.370;4.832;2023-12-20T06:00:59;101523.78;;;7.90;100.00
77452;BME280;66537;52.370;4.832;2023-12-20T06:03:25;101523.78;;;7.93;100.00
77452;BME280;66537;52.370;4.832;2023-12-20T06:05:50;101517.78;;;7.92;100.00
77452;BME280;66537;52.370;4.832;2023-12-20T06:08:15;101518.66;;;7.91;100.00
77452;BME280;66537;52.370;4.832;2023-12-20T06:10:41;101524.66;;;7.89;100.00
77452;BME280;66537;52.370;4.832;2023-12-20T06:13:06;101518.63;;;7.90;100.00
77452;BME280;66537;52.370;4.832;2023-12-20T06:15:32;101528.94;;;7.90;100.00
77452;BME280;66537;52.370;4.832;2023-12-20T06:17:57;101528.09;;;7.91;100.00
77452;BME280;66537;52.370;4.832;2023-12-20T06:20:23;101526.38;;;7.91;100.00
77452;BME280;66537;52.370;4.832;2023-12-20T06:22:48;101521.22;;;7.91;100.00
77452;BME280;66537;52.370;4.832;2023-12-20T06:25:13;101522.06;;;7.90;100.00
77452;BME280;66537;52.370;4.832;2023-12-20T06:27:39;101518.66;;;7.91;100.00
77452;BME280;66537;52.370;4.832;2023-12-20T06:30:06;101524.66;;;7.90;100.00
77452;BME280;66537;52.370;4.832;2023-12-20T06:32:32;101518.63;;;7.90;100.00
77452;BME280;66537;52.370;4.832;2023-12-20T06:34:57;101521.22;;;7.90;100.00
77452;BME280;66537;52.370;4.832;2023-12-20T06:37:22;101526.34;;;7.93;100.00
77452;BME280;66537;52.370;4.832;2023-12-20T06:39:48;101519.47;;;7.92;100.00
77452;BME280;66537;52.370;4.832;2023-12-20T06:42:13;101518.63;;;7.90;100.00
77452;BME280;66537;52.370;4.832;2023-12-20T06:44:38;101510.06;;;7.91;100.00
77452;BME280;66537;52.370;4.832;2023-12-20T06:47:04;101518.63;;;7.90;100.00
77452;BME280;66537;52.370;4.832;2023-12-20T06:49:30;101505.75;;;7.93;100.00
77452;BME280;66537;52.370;4.832;2023-12-20T06:51:55;101510.88;;;7.94;100.00
77452;BME280;66537;52.370;4.832;2023-12-20T06:54:20;101503.19;;;7.91;100.00
77452;BME280;66537;52.370;4.832;2023-12-20T06:56:46;101514.31;;;7.95;100.00
77452;BME280;66537;52.370;4.832;2023-12-20T06:59:11;101511.72;;;7.98;100.00
77452;BME280;66537;52.370;4.832;2023-12-20T07:01:36;101503.13;;;7.96;100.00
77452;BME280;66537;52.370;4.832;2023-12-20T07:04:03;101492.00;;;7.95;100.00
77452;BME280;66537;52.370;4.832;2023-12-20T07:06:28;101498.81;;;8.01;100.00
77452;BME280;66537;52.370;4.832;2023-12-20T07:08:54;101493.66;;;8.02;100.00
77452;BME280;66537;52.370;4.832;2023-12-20T07:11:19;101491.06;;;8.02;100.00
77452;BME280;66537;52.370;4.832;2023-12-20T07:13:44;101499.66;;;8.03;100.00
77452;BME280;66537;52.370;4.832;2023-12-20T07:16:10;101503.06;;;8.03;100.00
77452;BME280;66537;52.370;4.832;2023-12-20T07:18:35;101502.28;;;7.98;100.00
77452;BME280;66537;52.370;4.832;2023-12-20T07:21:00;101506.53;;;8.02;100.00
77452;BME280;66537;52.370;4.832;2023-12-20T07:23:26;101499.72;;;7.94;100.00
77452;BME280;66537;52.370;4.832;2023-12-20T07:25:51;101493.66;;;7.99;100.00
77452;BME280;66537;52.370;4.832;2023-12-20T07:28:17;101497.97;;;7.99;100.00
77452;BME280;66537;52.370;4.832;2023-12-20T07:30:42;101499.66;;;8.03;100.00
77452;BME280;66537;52.370;4.832;2023-12-20T07:33:08;101497.09;;;8.03;100.00
77452;BME280;66537;52.370;4.832;2023-12-20T07:35:34;101488.47;;;8.07;100.00
77452;BME280;66537;52.370;4.832;2023-12-20T07:38:00;101502.25;;;8.00;100.00
77452;BME280;66537;52.370;4.832;2023-12-20T07:40:25;101511.66;;;8.05;100.00
77452;BME280;66537;52.370;4.832;2023-12-20T07:42:50;101510.81;;;8.02;100.00
77452;BME280;66537;52.370;4.832;2023-12-20T07:45:16;101515.97;;;8.05;100.00
77452;BME280;66537;52.370;4.832;2023-12-20T07:47:41;101511.63;;;8.10;100.00
77452;BME280;66537;52.370;4.832;2023-12-20T07:50:06;101516.78;;;8.10;100.00
77452;BME280;66537;52.370;4.832;2023-12-20T07:52:32;101514.16;;;8.16;100.00
77452;BME280;66537;52.370;4.832;2023-12-20T07:54:57;101526.13;;;8.21;100.00
77452;BME280;66537;52.370;4.832;2023-12-20T07:57:23;101544.19;;;8.20;100.00
77452;BME280;66537;52.370;4.832;2023-12-20T07:59:48;101533.84;;;8.23;100.00
77452;BME280;66537;52.370;4.832;2023-12-20T08:02:14;101534.72;;;8.22;100.00
77452;BME280;66537;52.370;4.832;2023-12-20T08:04:39;101552.75;;;8.27;100.00
77452;BME280;66537;52.370;4.832;2023-12-20T08:07:05;101532.94;;;8.33;100.00
77452;BME280;66537;52.370;4.832;2023-12-20T08:09:31;101521.78;;;8.33;100.00
77452;BME280;66537;52.370;4.832;2023-12-20T08:11:57;101539.78;;;8.37;100.00
77452;BME280;66537;52.370;4.832;2023-12-20T08:14:24;101527.78;;;8.36;100.00
77452;BME280;66537;52.370;4.832;2023-12-20T08:16:49;101538.06;;;8.39;100.00
77452;BME280;66537;52.370;4.832;2023-12-20T08:19:15;101538.03;;;8.44;100.00
77452;BME280;66537;52.370;4.832;2023-12-20T08:21:40;101519.94;;;8.47;100.00
77452;BME280;66537;52.370;4.832;2023-12-20T08:24:06;101527.66;;;8.48;100.00
77452;BME280;66537;52.370;4.832;2023-12-20T08:26:32;101517.31;;;8.50;100.00
77452;BME280;66537;52.370;4.832;2023-12-20T08:28:58;101507.81;;;8.55;100.00
77452;BME280;66537;52.370;4.832;2023-12-20T08:31:23;101520.78;;;8.49;100.00
77452;BME280;66537;52.370;4.832;2023-12-20T08:33:48;101521.66;;;8.46;100.00
77452;BME280;66537;52.370;4.832;2023-12-20T08:36:14;101537.13;;;8.48;100.00
77452;BME280;66537;52.370;4.832;2023-12-20T08:38:40;101533.66;;;8.49;100.00
77452;BME280;66537;52.370;4.832;2023-12-20T08:41:06;101529.41;;;8.48;100.00
77452;BME280;66537;52.370;4.832;2023-12-20T08:43:32;101520.81;;;8.44;100.00
77452;BME280;66537;52.370;4.832;2023-12-20T08:45:57;101529.44;;;8.43;100.00
77452;BME280;66537;52.370;4.832;2023-12-20T08:48:22;101530.31;;;8.39;100.00
77452;BME280;66537;52.370;4.832;2023-12-20T08:50:48;101545.75;;;8.42;100.00
77452;BME280;66537;52.370;4.832;2023-12-20T08:53:15;101536.31;;;8.41;100.00
77452;BME280;66537;52.370;4.832;2023-12-20T08:55:41;101536.34;;;8.40;100.00
77452;BME280;66537;52.370;4.832;2023-12-20T08:58:07;101527.69;;;8.45;100.00
77452;BME280;66537;52.370;4.832;2023-12-20T09:00:33;101535.44;;;8.42;100.00
77452;BME280;66537;52.370;4.832;2023-12-20T09:02:59;101527.72;;;8.44;100.00
77452;BME280;66537;52.370;4.832;2023-12-20T09:05:24;101528.56;;;8.46;100.00
77452;BME280;66537;52.370;4.832;2023-12-20T09:07:50;101525.03;;;8.53;100.00
77452;BME280;66537;52.370;4.832;2023-12-20T09:10:15;101519.91;;;8.51;100.00
77452;BME280;66537;52.370;4.832;2023-12-20T09:12:41;101515.59;;;8.53;100.00
77452;BME280;66537;52.370;4.832;2023-12-20T09:15:08;101518.97;;;8.57;100.00
77452;BME280;66537;52.370;4.832;2023-12-20T09:17:33;101529.31;;;8.57;100.00
77452;BME280;66537;52.370;4.832;2023-12-20T09:19:59;101522.25;;;8.74;100.00
77452;BME280;66537;52.370;4.832;2023-12-20T09:22:25;101525.81;;;8.61;100.00
77452;BME280;66537;52.370;4.832;2023-12-20T09:24:50;101518.91;;;8.64;100.00
77452;BME280;66537;52.370;4.832;2023-12-20T09:27:16;101523.25;;;8.61;100.00
77452;BME280;66537;52.370;4.832;2023-12-20T09:29:41;101518.03;;;8.64;100.00
77452;BME280;66537;52.370;4.832;2023-12-20T09:32:07;101523.28;;;8.56;100.00
77452;BME280;66537;52.370;4.832;2023-12-20T09:34:33;101520.63;;;8.64;100.00
77452;BME280;66537;52.370;4.832;2023-12-20T09:36:58;101521.47;;;8.64;100.00
77452;BME280;66537;52.370;4.832;2023-12-20T09:39:23;101513.69;;;8.67;100.00
77452;BME280;66537;52.370;4.832;2023-12-20T09:42:09;101511.97;;;8.68;100.00
77452;BME280;66537;52.370;4.832;2023-12-20T09:44:36;101529.13;;;8.72;100.00
77452;BME280;66537;52.370;4.832;2023-12-20T09:47:03;101532.56;;;8.74;100.00
77452;BME280;66537;52.370;4.832;2023-12-20T09:49:30;101547.19;;;8.75;100.00
77452;BME280;66537;52.370;4.832;2023-12-20T09:51:55;101538.66;;;8.68;100.00
77452;BME280;66537;52.370;4.832;2023-12-20T09:54:22;101542.97;;;8.65;100.00
77452;BME280;66537;52.370;4.832;2023-12-20T09:56:48;101533.56;;;8.58;100.00
77452;BME280;66537;52.370;4.832;2023-12-20T09:59:14;101534.28;;;8.73;100.00
77452;BME280;66537;52.370;4.832;2023-12-20T10:01:40;101542.66;;;9.65;100.00
77452;BME280;66537;52.370;4.832;2023-12-20T10:04:07;101541.56;;;9.81;100.00
77452;BME280;66537;52.370;4.832;2023-12-20T10:06:44;101548.25;;;9.32;100.00
77452;BME280;66537;52.370;4.832;2023-12-20T10:09:10;101549.03;;;9.38;100.00
77452;BME280;66537;52.370;4.832;2023-12-20T10:11:37;101545.53;;;9.44;100.00
77452;BME280;66537;52.370;4.832;2023-12-20T10:14:03;101537.41;;;9.71;100.00
77452;BME280;66537;52.370;4.832;2023-12-20T10:16:30;101530.63;;;10.20;100.00
77452;BME280;66537;52.370;4.832;2023-12-20T10:18:56;101538.94;;;10.40;100.00
77452;BME280;66537;52.370;4.832;2023-12-20T10:21:22;101533.69;;;10.43;100.00
77452;BME280;66537;52.370;4.832;2023-12-20T10:23:48;101540.13;;;10.71;100.00
77452;BME280;66537;52.370;4.832;2023-12-20T10:28:46;101527.59;;;9.94;100.00
77452;BME280;66537;52.370;4.832;2023-12-20T10:31:34;101527.44;;;9.44;100.00
77452;BME280;66537;52.370;4.832;2023-12-20T10:34:02;101541.63;;;9.76;100.00
77452;BME280;66537;52.370;4.832;2023-12-20T10:36:32;101530.13;;;9.95;100.00
77452;BME280;66537;52.370;4.832;2023-12-20T10:38:58;101519.84;;;10.47;100.00
77452;BME280;66537;52.370;4.832;2023-12-20T10:41:26;101514.34;;;10.15;100.00
77452;BME280;66537;52.370;4.832;2023-12-20T10:43:54;101510.44;;;10.42;100.00
77452;BME280;66537;52.370;4.832;2023-12-20T10:46:20;101513.16;;;10.34;100.00
77452;BME280;66537;52.370;4.832;2023-12-20T10:48:46;101497.06;;;10.19;100.00
77452;BME280;66537;52.370;4.832;2023-12-20T10:51:14;101485.03;;;10.18;100.00
77452;BME280;66537;52.370;4.832;2023-12-20T10:53:42;101495.47;;;10.12;100.00
77452;BME280;66537;52.370;4.832;2023-12-20T10:56:08;101493.75;;;10.09;100.00
77452;BME280;66537;52.370;4.832;2023-12-20T10:58:35;101488.84;;;9.92;100.00
77452;BME280;66537;52.370;4.832;2023-12-20T11:01:03;101485.47;;;9.87;100.00
77452;BME280;66537;52.370;4.832;2023-12-20T11:03:32;101497.97;;;9.58;100.00
77452;BME280;66537;52.370;4.832;2023-12-20T11:06:03;101499.91;;;9.44;100.00
77452;BME280;66537;52.370;4.832;2023-12-20T11:08:38;101488.81;;;9.36;100.00
77452;BME280;66537;52.370;4.832;2023-12-20T11:11:33;101487.34;;;9.16;100.00
77452;BME280;66537;52.370;4.832;2023-12-20T11:14:04;101496.84;;;9.12;100.00
77452;BME280;66537;52.370;4.832;2023-12-20T11:16:33;101500.28;;;9.14;100.00
77452;BME280;66537;52.370;4.832;2023-12-20T11:19:04;101502.84;;;9.14;100.00
77452;BME280;66537;52.370;4.832;2023-12-20T11:21:30;101490.88;;;9.08;100.00
77452;BME280;66537;52.370;4.832;2023-12-20T11:23:56;101496.06;;;9.07;100.00
77452;BME280;66537;52.370;4.832;2023-12-20T11:26:28;101490.03;;;9.08;100.00
77452;BME280;66537;52.370;4.832;2023-12-20T11:28:54;101483.22;;;9.02;100.00
77452;BME280;66537;52.370;4.832;2023-12-20T11:31:40;101483.22;;;9.02;100.00
77452;BME280;66537;52.370;4.832;2023-12-20T11:34:17;101481.41;;;9.10;100.00
77452;BME280;66537;52.370;4.832;2023-12-20T11:36:42;101482.28;;;9.09;100.00
77452;BME280;66537;52.370;4.832;2023-12-20T11:39:07;101493.50;;;9.05;100.00
77452;BME280;66537;52.370;4.832;2023-12-20T11:41:36;101484.94;;;9.00;100.00
77452;BME280;66537;52.370;4.832;2023-12-20T11:44:04;101466.88;;;9.03;100.00
77452;BME280;66537;52.370;4.832;2023-12-20T11:46:31;101454.06;;;8.96;100.00
77452;BME280;66537;52.370;4.832;2023-12-20T11:48:56;101468.59;;;9.03;100.00
77452;BME280;66537;52.370;4.832;2023-12-20T11:51:22;101465.13;;;9.04;100.00
77452;BME280;66537;52.370;4.832;2023-12-20T11:53:51;101464.28;;;9.03;100.00
77452;BME280;66537;52.370;4.832;2023-12-20T11:56:17;101464.22;;;9.08;100.00
77452;BME280;66537;52.370;4.832;2023-12-20T11:58:43;101460.91;;;8.98;100.00
77452;BME280;66537;52.370;4.832;2023-12-20T12:01:08;101473.81;;;9.00;100.00
77452;BME280;66537;52.370;4.832;2023-12-20T12:03:33;101466.97;;;8.96;100.00
77452;BME280;66537;52.370;4.832;2023-12-20T12:05:59;101468.66;;;8.97;100.00
77452;BME280;66537;52.370;4.832;2023-12-20T12:08:26;101473.78;;;9.01;100.00
77452;BME280;66537;52.370;4.832;2023-12-20T12:10:51;101459.03;;;9.11;100.00
77452;BME280;66537;52.370;4.832;2023-12-20T12:13:16;101455.63;;;9.09;100.00
77452;BME280;66537;52.370;4.832;2023-12-20T12:15:42;101448.72;;;9.08;100.00
77452;BME280;66537;52.370;4.832;2023-12-20T12:18:07;101446.16;;;9.06;100.00
77452;BME280;66537;52.370;4.832;2023-12-20T12:20:33;101440.19;;;9.03;100.00
77452;BME280;66537;52.370;4.832;2023-12-20T12:23:05;101435.09;;;9.00;100.00
77452;BME280;66537;52.370;4.832;2023-12-20T12:25:34;101425.50;;;9.08;100.00
77452;BME280;66537;52.370;4.832;2023-12-20T12:28:01;101443.53;;;9.11;100.00
77452;BME280;66537;52.370;4.832;2023-12-20T12:30:26;101432.44;;;9.04;100.00
77452;BME280;66537;52.370;4.832;2023-12-20T12:32:52;101444.53;;;9.01;100.00
77452;BME280;66537;52.370;4.832;2023-12-20T12:35:18;101426.44;;;9.02;100.00
77452;BME280;66537;52.370;4.832;2023-12-20T12:37:44;101415.31;;;8.99;100.00
77452;BME280;66537;52.370;4.832;2023-12-20T12:40:14;101428.25;;;8.96;100.00
77452;BME280;66537;52.370;4.832;2023-12-20T12:42:40;101428.22;;;8.99;100.00
77452;BME280;66537;52.370;4.832;2023-12-20T12:45:06;101417.06;;;8.95;100.00
77452;BME280;66537;52.370;4.832;2023-12-20T12:47:33;101421.34;;;8.98;100.00